sensor_id;sensor_type;location;lat;lon;timestamp;pressure;altitude;pressure_sealevel;temperature;humidity
37778;BME280;23615;51.506;7.678;2023-01-25T00:01:13;102076.06;;;1.56;90.06
37778;BME280;23615;51.506;7.678;2023-01-25T00:03:39;102072.59;;;1.55;90.45
37778;BME280;23615;51.506;7.678;2023-01-25T00:06:04;102065.75;;;1.41;90.41
37778;BME280;23615;51.506;7.678;2023-01-25T00:08:29;102061.66;;;1.37;90.48
37778;BME280;23615;51.506;7.678;2023-01-25T00:10:55;102058.09;;;1.38;91.00
37778;BME280;23615;51.506;7.678;2023-01-25T00:13:20;102064.91;;;1.41;90.87
37778;BME280;23615;51.506;7.678;2023-01-25T00:15:45;102062.50;;;1.38;90.77
37778;BME280;23615;51.506;7.678;2023-01-25T00:18:11;102057.34;;;1.25;91.25
37778;BME280;23615;51.506;7.678;2023-01-25T00:20:36;102054.91;;;1.22;91.77
37778;BME280;23615;51.506;7.678;2023-01-25T00:23:01;102056.03;;;1.31;91.11
37778;BME280;23615;51.506;7.678;2023-01-25T00:25:26;102049.19;;;1.28;91.26
37778;BME280;23615;51.506;7.678;2023-01-25T00:27:52;102047.25;;;1.43;90.62
37778;BME280;23615;51.506;7.678;2023-01-25T00:30:17;102040.94;;;1.22;90.59
37778;BME280;23615;51.506;7.678;2023-01-25T00:32:56;102047.94;;;1.10;91.65
37778;BME280;23615;51.506;7.678;2023-01-25T00:35:22;102050.53;;;0.99;92.41
37778;BME280;23615;51.506;7.678;2023-01-25T00:37:51;102043.09;;;1.17;92.75
37778;BME280;23615;51.506;7.678;2023-01-25T00:40:17;102040.03;;;1.10;92.89
37778;BME280;23615;51.506;7.678;2023-01-25T00:42:43;102035.34;;;1.02;93.05
37778;BME280;23615;51.506;7.678;2023-01-25T00:45:10;102027.75;;;1.10;93.26
37778;BME280;23615;51.506;7.678;2023-01-25T00:47:36;102034.50;;;1.02;93.20
37778;BME280;23615;51.506;7.678;2023-01-25T00:50:01;102029.69;;;1.20;93.26
37778;BME280;23615;51.506;7.678;2023-01-25T00:52:26;102021.38;;;1.37;91.17
37778;BME280;23615;51.506;7.678;2023-01-25T00:54:52;102013.22;;;1.29;91.07
37778;BME280;23615;51.506;7.678;2023-01-25T00:57:18;102012.97;;;1.21;91.44
37778;BME280;23615;51.506;7.678;2023-01-25T00:59:43;102020.75;;;1.22;91.58
37778;BME280;23615;51.506;7.678;2023-01-25T01:02:10;102009.84;;;0.92;92.49
37778;BME280;23615;51.506;7.678;2023-01-25T01:04:36;102007.06;;;0.82;93.37
37778;BME280;23615;51.506;7.678;2023-01-25T01:07:01;102008.75;;;0.83;94.03
37778;BME280;23615;51.506;7.678;2023-01-25T01:09:27;102014.94;;;0.82;94.61
37778;BME280;23615;51.506;7.678;2023-01-25T01:11:52;102007.66;;;1.09;93.90
37778;BME280;23615;51.506;7.678;2023-01-25T01:14:19;102014.06;;;0.94;93.86
37778;BME280;23615;51.506;7.678;2023-01-25T01:16:45;102010.75;;;1.03;93.58
37778;BME280;23615;51.506;7.678;2023-01-25T01:19:11;102011.03;;;1.11;93.03
37778;BME280;23615;51.506;7.678;2023-01-25T01:21:36;102008.91;;;0.93;93.15
37778;BME280;23615;51.506;7.678;2023-01-25T01:24:02;102007.22;;;0.92;93.88
37778;BME280;23615;51.506;7.678;2023-01-25T01:26:27;102015.41;;;1.00;93.65
37778;BME280;23615;51.506;7.678;2023-01-25T01:28:52;102014.94;;;1.06;93.47
37778;BME280;23615;51.506;7.678;2023-01-25T01:31:20;102016.78;;;1.17;93.18
37778;BME280;23615;51.506;7.678;2023-01-25T01:33:50;102016.84;;;1.04;93.06
37778;BME280;23615;51.506;7.678;2023-01-25T01:36:19;102019.94;;;0.98;93.39
37778;BME280;23615;51.506;7.678;2023-01-25T01:38:45;102012.47;;;0.92;93.50
37778;BME280;23615;51.506;7.678;2023-01-25T01:41:10;102018.97;;;0.75;94.75
37778;BME280;23615;51.506;7.678;2023-01-25T01:43:36;102020.16;;;0.71;95.09
37778;BME280;23615;51.506;7.678;2023-01-25T01:48:41;102017.44;;;0.72;95.84
37778;BME280;23615;51.506;7.678;2023-01-25T01:53:43;102022.50;;;0.87;94.06
37778;BME280;23615;51.506;7.678;2023-01-25T01:56:12;102012.56;;;0.79;95.03
37778;BME280;23615;51.506;7.678;2023-01-25T01:58:41;102017.16;;;0.88;94.82
37778;BME280;23615;51.506;7.678;2023-01-25T02:01:07;102008.91;;;1.17;93.05
37778;BME280;23615;51.506;7.678;2023-01-25T02:03:33;102006.38;;;0.91;92.69
37778;BME280;23615;51.506;7.678;2023-01-25T02:06:08;102004.56;;;0.81;93.42
37778;BME280;23615;51.506;7.678;2023-01-25T02:08:35;102005.25;;;0.71;94.01
37778;BME280;23615;51.506;7.678;2023-01-25T02:11:02;102000.66;;;0.62;94.45
37778;BME280;23615;51.506;7.678;2023-01-25T02:13:29;102009.53;;;0.72;95.26
37778;BME280;23615;51.506;7.678;2023-01-25T02:15:56;102002.72;;;0.70;95.29
37778;BME280;23615;51.506;7.678;2023-01-25T02:18:23;102003.94;;;0.77;95.30
37778;BME280;23615;51.506;7.678;2023-01-25T02:20:53;102010.44;;;1.08;93.94
37778;BME280;23615;51.506;7.678;2023-01-25T02:23:29;102003.22;;;0.99;93.35
37778;BME280;23615;51.506;7.678;2023-01-25T02:25:59;102003.84;;;0.79;94.37
37778;BME280;23615;51.506;7.678;2023-01-25T02:31:06;102005.34;;;0.94;93.80
37778;BME280;23615;51.506;7.678;2023-01-25T02:33:31;102001.59;;;0.85;94.64
37778;BME280;23615;51.506;7.678;2023-01-25T02:38:25;102007.97;;;0.70;95.11
37778;BME280;23615;51.506;7.678;2023-01-25T02:41:06;102001.53;;;0.74;95.28
37778;BME280;23615;51.506;7.678;2023-01-25T02:43:34;102010.25;;;0.74;95.57
37778;BME280;23615;51.506;7.678;2023-01-25T02:46:12;102003.16;;;0.88;95.07
37778;BME280;23615;51.506;7.678;2023-01-25T02:48:38;102004.84;;;0.89;94.57
37778;BME280;23615;51.506;7.678;2023-01-25T02:51:08;102005.50;;;0.80;95.22
37778;BME280;23615;51.506;7.678;2023-01-25T02:53:33;102001.00;;;0.82;95.62
37778;BME280;23615;51.506;7.678;2023-01-25T02:55:59;102000.47;;;1.00;95.32
37778;BME280;23615;51.506;7.678;2023-01-25T02:58:24;101993.78;;;0.96;95.05
37778;BME280;23615;51.506;7.678;2023-01-25T03:00:49;101995.38;;;0.86;94.79
37778;BME280;23615;51.506;7.678;2023-01-25T03:03:15;101990.97;;;0.87;94.71
37778;BME280;23615;51.506;7.678;2023-01-25T03:05:40;101991.34;;;0.93;94.82
37778;BME280;23615;51.506;7.678;2023-01-25T03:08:05;101983.31;;;0.84;94.20
37778;BME280;23615;51.506;7.678;2023-01-25T03:10:31;101990.34;;;0.59;94.79
37778;BME280;23615;51.506;7.678;2023-01-25T03:12:56;101984.53;;;0.67;95.28
37778;BME280;23615;51.506;7.678;2023-01-25T03:15:21;101986.72;;;0.73;95.06
37778;BME280;23615;51.506;7.678;2023-01-25T03:17:47;101977.72;;;0.64;95.54
37778;BME280;23615;51.506;7.678;2023-01-25T03:20:12;101981.41;;;0.62;95.99
37778;BME280;23615;51.506;7.678;2023-01-25T03:22:37;101989.97;;;0.53;95.97
37778;BME280;23615;51.506;7.678;2023-01-25T03:25:03;101977.78;;;0.52;96.92
37778;BME280;23615;51.506;7.678;2023-01-25T03:27:29;101969.63;;;0.44;97.39
37778;BME280;23615;51.506;7.678;2023-01-25T03:29:54;101973.47;;;0.51;97.79
37778;BME280;23615;51.506;7.678;2023-01-25T03:32:20;101970.19;;;0.60;98.07
37778;BME280;23615;51.506;7.678;2023-01-25T03:34:45;101966.88;;;0.69;97.76
37778;BME280;23615;51.506;7.678;2023-01-25T03:37:10;101969.53;;;0.69;97.52
37778;BME280;23615;51.506;7.678;2023-01-25T03:39:36;101961.34;;;0.61;97.36
37778;BME280;23615;51.506;7.678;2023-01-25T03:42:01;101955.59;;;0.56;97.96
37778;BME280;23615;51.506;7.678;2023-01-25T03:44:26;101950.47;;;0.54;98.24
37778;BME280;23615;51.506;7.678;2023-01-25T03:46:51;101942.13;;;0.60;98.75
37778;BME280;23615;51.506;7.678;2023-01-25T03:49:17;101938.09;;;0.67;98.71
37778;BME280;23615;51.506;7.678;2023-01-25T03:51:42;101939.00;;;0.79;97.94
37778;BME280;23615;51.506;7.678;2023-01-25T03:54:08;101930.19;;;0.91;97.33
37778;BME280;23615;51.506;7.678;2023-01-25T03:56:34;101928.88;;;0.86;95.91
37778;BME280;23615;51.506;7.678;2023-01-25T03:59:00;101920.25;;;0.84;96.19
37778;BME280;23615;51.506;7.678;2023-01-25T04:01:25;101922.72;;;0.74;96.31
37778;BME280;23615;51.506;7.678;2023-01-25T04:03:50;101918.19;;;0.76;96.65
37778;BME280;23615;51.506;7.678;2023-01-25T04:06:15;101915.84;;;0.84;96.77
37778;BME280;23615;51.506;7.678;2023-01-25T04:08:41;101915.25;;;0.92;96.32
37778;BME280;23615;51.506;7.678;2023-01-25T04:11:07;101908.84;;;0.61;95.84
37778;BME280;23615;51.506;7.678;2023-01-25T04:13:34;101905.78;;;0.78;95.93
37778;BME280;23615;51.506;7.678;2023-01-25T04:16:04;101907.81;;;0.74;96.20
37778;BME280;23615;51.506;7.678;2023-01-25T04:18:29;101905.06;;;0.76;96.92
37778;BME280;23615;51.506;7.678;2023-01-25T04:20:55;101911.91;;;0.79;96.34
37778;BME280;23615;51.506;7.678;2023-01-25T04:23:22;101914.13;;;0.72;96.51
37778;BME280;23615;51.506;7.678;2023-01-25T04:25:59;101903.84;;;0.69;96.94
37778;BME280;23615;51.506;7.678;2023-01-25T04:28:24;101904.81;;;0.68;96.83
37778;BME280;23615;51.506;7.678;2023-01-25T04:30:50;101905.00;;;0.65;96.82
37778;BME280;23615;51.506;7.678;2023-01-25T04:33:16;101901.78;;;0.61;97.14
37778;BME280;23615;51.506;7.678;2023-01-25T04:35:42;101893.75;;;0.52;97.69
37778;BME280;23615;51.506;7.678;2023-01-25T04:38:09;101887.56;;;0.64;98.19
37778;BME280;23615;51.506;7.678;2023-01-25T04:40:34;101881.38;;;0.65;97.69
37778;BME280;23615;51.506;7.678;2023-01-25T04:43:00;101884.69;;;0.56;97.56
37778;BME280;23615;51.506;7.678;2023-01-25T04:45:25;101888.72;;;0.72;96.54
37778;BME280;23615;51.506;7.678;2023-01-25T04:47:59;101878.56;;;0.44;96.88
37778;BME280;23615;51.506;7.678;2023-01-25T04:50:24;101877.84;;;0.42;97.13
37778;BME280;23615;51.506;7.678;2023-01-25T04:52:50;101870.75;;;0.31;97.90
37778;BME280;23615;51.506;7.678;2023-01-25T04:55:16;101875.66;;;0.36;98.41
37778;BME280;23615;51.506;7.678;2023-01-25T04:57:41;101874.66;;;0.26;98.28
37778;BME280;23615;51.506;7.678;2023-01-25T05:00:07;101873.03;;;0.36;98.88
37778;BME280;23615;51.506;7.678;2023-01-25T05:02:33;101866.28;;;0.45;98.25
37778;BME280;23615;51.506;7.678;2023-01-25T05:04:58;101863.41;;;0.48;98.43
37778;BME280;23615;51.506;7.678;2023-01-25T05:07:23;101864.75;;;0.53;98.22
37778;BME280;23615;51.506;7.678;2023-01-25T05:09:48;101873.75;;;0.73;97.33
37778;BME280;23615;51.506;7.678;2023-01-25T05:12:14;101872.38;;;0.80;96.59
37778;BME280;23615;51.506;7.678;2023-01-25T05:14:39;101881.38;;;0.65;96.29
37778;BME280;23615;51.506;7.678;2023-01-25T05:17:05;101882.31;;;0.64;96.85
37778;BME280;23615;51.506;7.678;2023-01-25T05:19:31;101885.56;;;0.67;97.32
37778;BME280;23615;51.506;7.678;2023-01-25T05:21:57;101880.91;;;0.60;98.73
37778;BME280;23615;51.506;7.678;2023-01-25T05:24:26;101871.97;;;0.73;98.68
37778;BME280;23615;51.506;7.678;2023-01-25T05:26:51;101875.16;;;0.90;97.56
37778;BME280;23615;51.506;7.678;2023-01-25T05:29:29;101870.69;;;0.79;96.56
37778;BME280;23615;51.506;7.678;2023-01-25T05:31:57;101865.97;;;0.60;96.34
37778;BME280;23615;51.506;7.678;2023-01-25T05:34:22;101868.50;;;0.14;97.16
37778;BME280;23615;51.506;7.678;2023-01-25T05:36:48;101878.63;;;0.08;98.58
37778;BME280;23615;51.506;7.678;2023-01-25T05:39:13;101869.78;;;0.09;99.21
37778;BME280;23615;51.506;7.678;2023-01-25T05:41:38;101878.81;;;0.28;99.12
37778;BME280;23615;51.506;7.678;2023-01-25T05:44:04;101872.31;;;0.34;98.81
37778;BME280;23615;51.506;7.678;2023-01-25T05:46:29;101876.94;;;0.30;98.76
37778;BME280;23615;51.506;7.678;2023-01-25T05:48:55;101876.75;;;0.21;98.77
37778;BME280;23615;51.506;7.678;2023-01-25T05:51:20;101884.28;;;0.02;99.35
37778;BME280;23615;51.506;7.678;2023-01-25T05:53:45;101876.59;;;0.11;100.00
37778;BME280;23615;51.506;7.678;2023-01-25T05:56:11;101877.16;;;0.04;100.00
37778;BME280;23615;51.506;7.678;2023-01-25T05:58:37;101877.03;;;0.05;100.00
37778;BME280;23615;51.506;7.678;2023-01-25T06:01:06;101876.84;;;0.08;100.00
37778;BME280;23615;51.506;7.678;2023-01-25T06:03:32;101881.09;;;0.09;100.00
37778;BME280;23615;51.506;7.678;2023-01-25T06:05:59;101879.75;;;0.16;100.00
37778;BME280;23615;51.506;7.678;2023-01-25T06:08:29;101878.44;;;0.46;100.00
37778;BME280;23615;51.506;7.678;2023-01-25T06:10:54;101863.75;;;0.43;99.72
37778;BME280;23615;51.506;7.678;2023-01-25T06:13:20;101865.84;;;0.27;99.42
37778;BME280;23615;51.506;7.678;2023-01-25T06:15:53;101866.16;;;0.46;98.57
37778;BME280;23615;51.506;7.678;2023-01-25T06:18:19;101863.66;;;0.45;97.46
37778;BME280;23615;51.506;7.678;2023-01-25T06:20:44;101867.78;;;0.36;97.60
37778;BME280;23615;51.506;7.678;2023-01-25T06:23:10;101862.81;;;0.20;97.29
37778;BME280;23615;51.506;7.678;2023-01-25T06:25:35;101867.88;;;0.11;98.37
37778;BME280;23615;51.506;7.678;2023-01-25T06:28:00;101862.44;;;0.01;99.40
37778;BME280;23615;51.506;7.678;2023-01-25T06:30:25;101869.81;;;-0.04;99.85
37778;BME280;23615;51.506;7.678;2023-01-25T06:32:51;101875.81;;;-0.02;100.00
37778;BME280;23615;51.506;7.678;2023-01-25T06:35:16;101871.06;;;0.03;100.00
37778;BME280;23615;51.506;7.678;2023-01-25T06:37:41;101872.91;;;0.14;100.00
37778;BME280;23615;51.506;7.678;2023-01-25T06:40:09;101867.91;;;0.34;100.00
37778;BME280;23615;51.506;7.678;2023-01-25T06:42:35;101870.94;;;0.28;100.00
37778;BME280;23615;51.506;7.678;2023-01-25T06:45:00;101866.25;;;0.21;100.00
37778;BME280;23615;51.506;7.678;2023-01-25T06:47:25;101868.88;;;0.21;100.00
37778;BME280;23615;51.506;7.678;2023-01-25T06:49:51;101869.28;;;0.27;100.00
37778;BME280;23615;51.506;7.678;2023-01-25T06:52:16;101872.13;;;0.24;100.00
37778;BME280;23615;51.506;7.678;2023-01-25T06:54:41;101875.03;;;0.32;100.00
37778;BME280;23615;51.506;7.678;2023-01-25T06:57:07;101872.91;;;0.14;99.13
37778;BME280;23615;51.506;7.678;2023-01-25T06:59:34;101873.81;;;0.25;98.08
37778;BME280;23615;51.506;7.678;2023-01-25T07:01:59;101868.50;;;0.38;97.81
37778;BME280;23615;51.506;7.678;2023-01-25T07:04:25;101871.97;;;0.15;97.80
37778;BME280;23615;51.506;7.678;2023-01-25T07:06:50;101869.25;;;0.16;98.73
37778;BME280;23615;51.506;7.678;2023-01-25T07:09:15;101869.84;;;0.44;97.30
37778;BME280;23615;51.506;7.678;2023-01-25T07:11:41;101876.53;;;0.48;96.33
37778;BME280;23615;51.506;7.678;2023-01-25T07:14:06;101872.53;;;0.07;96.74
37778;BME280;23615;51.506;7.678;2023-01-25T07:16:31;101870.00;;;0.06;97.91
37778;BME280;23615;51.506;7.678;2023-01-25T07:19:04;101872.97;;;0.25;98.47
37778;BME280;23615;51.506;7.678;2023-01-25T07:21:30;101870.13;;;0.28;98.35
37778;BME280;23615;51.506;7.678;2023-01-25T07:23:59;101869.78;;;0.09;98.43
37778;BME280;23615;51.506;7.678;2023-01-25T07:26:26;101873.38;;;0.08;98.80
37778;BME280;23615;51.506;7.678;2023-01-25T07:28:52;101864.03;;;0.27;98.54
37778;BME280;23615;51.506;7.678;2023-01-25T07:31:19;101865.44;;;0.44;97.24
37778;BME280;23615;51.506;7.678;2023-01-25T07:33:53;101864.09;;;0.15;97.66
37778;BME280;23615;51.506;7.678;2023-01-25T07:36:18;101857.72;;;0.06;98.68
37778;BME280;23615;51.506;7.678;2023-01-25T07:38:44;101858.47;;;0.08;99.76
37778;BME280;23615;51.506;7.678;2023-01-25T07:41:10;101854.28;;;-0.07;99.88
37778;BME280;23615;51.506;7.678;2023-01-25T07:43:35;101852.00;;;-0.12;100.00
37778;BME280;23615;51.506;7.678;2023-01-25T07:46:03;101855.66;;;-0.02;100.00
37778;BME280;23615;51.506;7.678;2023-01-25T07:48:29;101855.56;;;0.00;100.00
37778;BME280;23615;51.506;7.678;2023-01-25T07:51:02;101850.13;;;0.14;100.00
37778;BME280;23615;51.506;7.678;2023-01-25T07:53:38;101851.41;;;0.32;100.00
37778;BME280;23615;51.506;7.678;2023-01-25T07:56:04;101851.88;;;0.26;98.65
37778;BME280;23615;51.506;7.678;2023-01-25T07:58:30;101842.88;;;0.42;98.63
37778;BME280;23615;51.506;7.678;2023-01-25T08:00:55;101845.66;;;0.04;97.99
37778;BME280;23615;51.506;7.678;2023-01-25T08:03:20;101839.22;;;-0.16;98.46
37778;BME280;23615;51.506;7.678;2023-01-25T08:05:46;101846.91;;;-0.26;100.00
37778;BME280;23615;51.506;7.678;2023-01-25T08:08:12;101845.66;;;-0.33;100.00
37778;BME280;23615;51.506;7.678;2023-01-25T08:10:37;101853.53;;;-0.33;100.00
37778;BME280;23615;51.506;7.678;2023-01-25T08:13:02;101854.25;;;-0.31;100.00
37778;BME280;23615;51.506;7.678;2023-01-25T08:15:28;101850.47;;;-0.27;100.00
37778;BME280;23615;51.506;7.678;2023-01-25T08:17:53;101843.75;;;-0.18;100.00
37778;BME280;23615;51.506;7.678;2023-01-25T08:20:18;101844.50;;;-0.29;100.00
37778;BME280;23615;51.506;7.678;2023-01-25T08:22:46;101840.69;;;-0.12;100.00
37778;BME280;23615;51.506;7.678;2023-01-25T08:25:11;101846.88;;;-0.13;100.00
37778;BME280;23615;51.506;7.678;2023-01-25T08:27:36;101845.38;;;-0.05;100.00
37778;BME280;23615;51.506;7.678;2023-01-25T08:30:02;101839.47;;;0.05;100.00
37778;BME280;23615;51.506;7.678;2023-01-25T08:32:27;101840.38;;;0.16;100.00
37778;BME280;23615;51.506;7.678;2023-01-25T08:34:53;101843.28;;;0.24;99.71
37778;BME280;23615;51.506;7.678;2023-01-25T08:37:18;101835.88;;;0.29;99.15
37778;BME280;23615;51.506;7.678;2023-01-25T08:39:43;101827.91;;;0.31;98.74
37778;BME280;23615;51.506;7.678;2023-01-25T08:42:08;101828.41;;;0.12;98.47
37778;BME280;23615;51.506;7.678;2023-01-25T08:44:34;101834.44;;;0.02;99.66
37778;BME280;23615;51.506;7.678;2023-01-25T08:46:59;101824.59;;;-0.08;100.00
37778;BME280;23615;51.506;7.678;2023-01-25T08:49:24;101825.72;;;0.01;100.00
37778;BME280;23615;51.506;7.678;2023-01-25T08:51:51;101826.69;;;0.00;100.00
37778;BME280;23615;51.506;7.678;2023-01-25T08:54:17;101831.94;;;0.00;100.00
37778;BME280;23615;51.506;7.678;2023-01-25T08:56:42;101827.84;;;-0.04;100.00
37778;BME280;23615;51.506;7.678;2023-01-25T08:59:11;101832.59;;;0.15;100.00
37778;BME280;23615;51.506;7.678;2023-01-25T09:01:37;101830.31;;;0.34;100.00
37778;BME280;23615;51.506;7.678;2023-01-25T09:04:02;101824.50;;;0.42;98.92
37778;BME280;23615;51.506;7.678;2023-01-25T09:06:28;101821.34;;;0.36;98.47
37778;BME280;23615;51.506;7.678;2023-01-25T09:08:53;101818.81;;;0.24;99.23
37778;BME280;23615;51.506;7.678;2023-01-25T09:11:20;101817.44;;;0.07;99.47
37778;BME280;23615;51.506;7.678;2023-01-25T09:13:46;101815.19;;;0.14;100.00
37778;BME280;23615;51.506;7.678;2023-01-25T09:16:18;101811.94;;;0.10;100.00
37778;BME280;23615;51.506;7.678;2023-01-25T09:18:46;101806.50;;;0.00;100.00
37778;BME280;23615;51.506;7.678;2023-01-25T09:21:14;101798.25;;;-0.06;100.00
37778;BME280;23615;51.506;7.678;2023-01-25T09:23:40;101800.22;;;0.03;100.00
37778;BME280;23615;51.506;7.678;2023-01-25T09:26:09;101796.31;;;0.09;100.00
37778;BME280;23615;51.506;7.678;2023-01-25T09:28:34;101786.63;;;0.09;100.00
37778;BME280;23615;51.506;7.678;2023-01-25T09:31:02;101791.09;;;0.09;100.00
37778;BME280;23615;51.506;7.678;2023-01-25T09:33:31;101789.50;;;0.06;100.00
37778;BME280;23615;51.506;7.678;2023-01-25T09:35:57;101787.44;;;0.22;100.00
37778;BME280;23615;51.506;7.678;2023-01-25T09:38:22;101784.69;;;0.59;99.86
37778;BME280;23615;51.506;7.678;2023-01-25T09:51:52;101781.41;;;0.09;100.00
37778;BME280;23615;51.506;7.678;2023-01-25T09:54:25;101774.75;;;0.16;100.00
37778;BME280;23615;51.506;7.678;2023-01-25T09:56:52;101777.59;;;0.13;100.00
37778;BME280;23615;51.506;7.678;2023-01-25T09:59:22;101776.50;;;0.05;99.89
37778;BME280;23615;51.506;7.678;2023-01-25T10:01:54;101773.56;;;0.20;100.00
37778;BME280;23615;51.506;7.678;2023-01-25T10:04:28;101773.13;;;0.26;99.77
37778;BME280;23615;51.506;7.678;2023-01-25T10:07:14;101765.78;;;0.43;98.99
37778;BME280;23615;51.506;7.678;2023-01-25T10:09:58;101762.91;;;0.11;99.35
37778;BME280;23615;51.506;7.678;2023-01-25T10:12:25;101752.53;;;0.09;99.97
37778;BME280;23615;51.506;7.678;2023-01-25T10:14:51;101760.19;;;0.12;100.00
37778;BME280;23615;51.506;7.678;2023-01-25T10:17:51;101762.22;;;0.20;100.00
37778;BME280;23615;51.506;7.678;2023-01-25T10:20:22;101758.09;;;0.28;100.00
37778;BME280;23615;51.506;7.678;2023-01-25T10:23:08;101753.72;;;0.40;100.00
37778;BME280;23615;51.506;7.678;2023-01-25T10:26:04;101758.84;;;0.42;100.00
37778;BME280;23615;51.506;7.678;2023-01-25T10:31:18;101745.94;;;0.38;99.66
37778;BME280;23615;51.506;7.678;2023-01-25T10:33:46;101748.25;;;0.43;100.00
37778;BME280;23615;51.506;7.678;2023-01-25T10:36:13;101753.78;;;0.62;99.67
37778;BME280;23615;51.506;7.678;2023-01-25T10:38:41;101751.59;;;0.45;99.44
37778;BME280;23615;51.506;7.678;2023-01-25T10:41:13;101744.69;;;0.55;100.00
37778;BME280;23615;51.506;7.678;2023-01-25T10:43:40;101729.41;;;0.60;99.82
37778;BME280;23615;51.506;7.678;2023-01-25T10:46:17;101731.22;;;0.60;99.59
37778;BME280;23615;51.506;7.678;2023-01-25T10:48:43;101727.78;;;0.82;99.30
37778;BME280;23615;51.506;7.678;2023-01-25T10:51:09;101722.38;;;0.61;98.98
37778;BME280;23615;51.506;7.678;2023-01-25T10:53:58;101719.75;;;0.61;98.92
37778;BME280;23615;51.506;7.678;2023-01-25T10:56:24;101718.56;;;0.54;99.46
37778;BME280;23615;51.506;7.678;2023-01-25T10:58:52;101704.94;;;0.49;99.39
37778;BME280;23615;51.506;7.678;2023-01-25T11:01:31;101694.28;;;0.39;99.94
37778;BME280;23615;51.506;7.678;2023-01-25T11:03:57;101692.53;;;0.51;100.00
37778;BME280;23615;51.506;7.678;2023-01-25T11:06:35;101692.16;;;0.55;100.00
37778;BME280;23615;51.506;7.678;2023-01-25T11:09:47;101690.38;;;0.56;99.97
37778;BME280;23615;51.506;7.678;2023-01-25T11:11:58;101687.97;;;0.42;100.00
37778;BME280;23615;51.506;7.678;2023-01-25T11:14:26;101688.69;;;0.55;100.00
37778;BME280;23615;51.506;7.678;2023-01-25T11:16:53;101693.00;;;0.67;100.00
37778;BME280;23615;51.506;7.678;2023-01-25T11:19:39;101685.50;;;0.51;100.00
37778;BME280;23615;51.506;7.678;2023-01-25T11:22:20;101678.47;;;0.63;99.91
37778;BME280;23615;51.506;7.678;2023-01-25T11:24:46;101678.94;;;0.90;99.05
37778;BME280;23615;51.506;7.678;2023-01-25T11:27:21;101668.78;;;0.86;98.19
37778;BME280;23615;51.506;7.678;2023-01-25T11:30:08;101668.16;;;0.93;96.91
37778;BME280;23615;51.506;7.678;2023-01-25T11:32:38;101658.75;;;0.80;96.95
37778;BME280;23615;51.506;7.678;2023-01-25T11:35:11;101651.00;;;0.78;97.84
37778;BME280;23615;51.506;7.678;2023-01-25T11:38:04;101644.78;;;0.57;97.67
37778;BME280;23615;51.506;7.678;2023-01-25T11:41:05;101645.03;;;0.54;98.19
37778;BME280;23615;51.506;7.678;2023-01-25T11:52:13;101601.59;;;0.50;100.00
37778;BME280;23615;51.506;7.678;2023-01-25T12:00:06;101592.75;;;0.51;100.00
37778;BME280;23615;51.506;7.678;2023-01-25T12:02:46;101588.19;;;0.64;100.00
37778;BME280;23615;51.506;7.678;2023-01-25T12:08:15;101580.19;;;0.65;100.00
37778;BME280;23615;51.506;7.678;2023-01-25T12:22:16;101549.75;;;0.74;99.69
37778;BME280;23615;51.506;7.678;2023-01-25T12:27:54;101535.41;;;0.78;98.78
37778;BME280;23615;51.506;7.678;2023-01-25T12:30:41;101528.72;;;0.85;99.02
37778;BME280;23615;51.506;7.678;2023-01-25T12:33:55;101520.25;;;0.82;98.28
37778;BME280;23615;51.506;7.678;2023-01-25T12:36:35;101517.34;;;0.96;97.37
37778;BME280;23615;51.506;7.678;2023-01-25T12:39:03;101502.91;;;0.90;96.66
37778;BME280;23615;51.506;7.678;2023-01-25T12:41:38;101500.56;;;0.76;96.64
37778;BME280;23615;51.506;7.678;2023-01-25T12:44:24;101494.97;;;0.69;97.49
37778;BME280;23615;51.506;7.678;2023-01-25T12:52:23;101481.88;;;0.47;98.40
37778;BME280;23615;51.506;7.678;2023-01-25T12:54:51;101471.38;;;0.47;98.74
37778;BME280;23615;51.506;7.678;2023-01-25T12:57:25;101470.09;;;0.42;99.62
37778;BME280;23615;51.506;7.678;2023-01-25T13:02:49;101449.91;;;0.53;99.20
37778;BME280;23615;51.506;7.678;2023-01-25T13:05:36;101430.94;;;0.50;98.99
37778;BME280;23615;51.506;7.678;2023-01-25T13:11:07;101428.81;;;0.44;98.17
37778;BME280;23615;51.506;7.678;2023-01-25T13:13:34;101411.53;;;0.30;97.93
37778;BME280;23615;51.506;7.678;2023-01-25T13:18:54;101412.78;;;0.47;98.80
37778;BME280;23615;51.506;7.678;2023-01-25T13:24:11;101408.75;;;0.43;97.74
37778;BME280;23615;51.506;7.678;2023-01-25T13:31:57;101403.06;;;0.69;98.15
37778;BME280;23615;51.506;7.678;2023-01-25T13:39:47;101394.34;;;0.69;96.11
37778;BME280;23615;51.506;7.678;2023-01-25T13:44:49;101387.44;;;0.57;96.06
37778;BME280;23615;51.506;7.678;2023-01-25T13:47:19;101388.19;;;0.48;96.38
37778;BME280;23615;51.506;7.678;2023-01-25T13:49:56;101389.16;;;0.47;96.49
37778;BME280;23615;51.506;7.678;2023-01-25T13:52:25;101391.16;;;0.11;97.36
37778;BME280;23615;51.506;7.678;2023-01-25T13:54:54;101382.47;;;0.11;98.34
37778;BME280;23615;51.506;7.678;2023-01-25T13:57:23;101387.81;;;0.20;98.51
37778;BME280;23615;51.506;7.678;2023-01-25T13:59:57;101387.44;;;0.36;97.77
37778;BME280;23615;51.506;7.678;2023-01-25T14:02:24;101375.34;;;0.45;97.25
37778;BME280;23615;51.506;7.678;2023-01-25T14:04:50;101377.50;;;0.40;97.05
37778;BME280;23615;51.506;7.678;2023-01-25T14:07:19;101373.59;;;0.34;97.80
37778;BME280;23615;51.506;7.678;2023-01-25T14:09:46;101373.94;;;0.29;98.39
37778;BME280;23615;51.506;7.678;2023-01-25T14:12:39;101370.88;;;0.24;99.65
37778;BME280;23615;51.506;7.678;2023-01-25T14:15:29;101361.19;;;0.36;99.61
37778;BME280;23615;51.506;7.678;2023-01-25T14:18:11;101364.84;;;0.45;99.20
37778;BME280;23615;51.506;7.678;2023-01-25T14:20:39;101361.13;;;0.47;98.83
37778;BME280;23615;51.506;7.678;2023-01-25T14:23:04;101359.25;;;0.38;98.96
37778;BME280;23615;51.506;7.678;2023-01-25T14:25:32;101368.56;;;0.31;99.43
37778;BME280;23615;51.506;7.678;2023-01-25T14:27:59;101370.84;;;0.35;99.77
37778;BME280;23615;51.506;7.678;2023-01-25T14:30:27;101360.97;;;0.60;99.73